createdAt,value
2019-06-20T00:01:59.043Z,9.30
2019-06-20T00:04:28.745Z,9.98
2019-06-20T00:06:58.929Z,10.35
2019-06-20T00:09:29.586Z,11.07
2019-06-20T00:11:58.858Z,10.10
2019-06-20T00:14:28.667Z,11.10
2019-06-20T00:16:59.496Z,9.93
2019-06-20T00:19:29.350Z,10.83
2019-06-20T00:21:57.889Z,11.53
2019-06-20T00:24:26.470Z,11.68
2019-06-20T00:26:54.951Z,11.48
2019-06-20T00:29:23.436Z,12.70
2019-06-20T00:31:51.937Z,12.10
2019-06-20T00:34:21.779Z,13.38
2019-06-20T00:36:51.379Z,13.62
2019-06-20T00:39:21.224Z,13.50
2019-06-20T00:41:53.377Z,14.43
2019-06-20T00:44:24.746Z,14.00
2019-06-20T00:46:55.208Z,14.77
2019-06-20T00:49:25.007Z,16.47
2019-06-20T00:51:53.564Z,17.23
2019-06-20T00:54:22.120Z,19.20
2019-06-20T00:56:52.127Z,20.47
2019-06-20T00:59:22.208Z,22.43
2019-06-20T01:01:55.814Z,26.10
2019-06-20T01:04:26.777Z,26.20
2019-06-20T01:06:55.313Z,28.87
2019-06-20T01:09:23.813Z,33.77
2019-06-20T01:11:53.829Z,34.85
2019-06-20T01:14:23.230Z,35.05
2019-06-20T01:16:54.568Z,35.90
2019-06-20T01:19:23.917Z,38.23
2019-06-20T01:21:53.522Z,37.00
2019-06-20T01:24:21.995Z,41.87
2019-06-20T01:26:52.106Z,42.23
2019-06-20T01:29:20.580Z,43.77
2019-06-20T01:31:50.181Z,45.97
2019-06-20T01:34:20.491Z,48.98
2019-06-20T01:36:48.977Z,47.27
2019-06-20T01:39:17.620Z,49.48
2019-06-20T01:41:46.143Z,48.67
2019-06-20T01:44:14.626Z,50.93
2019-06-20T01:46:44.644Z,54.95
2019-06-20T01:49:13.149Z,55.12
2019-06-20T01:51:43.902Z,55.97
2019-06-20T01:54:13.875Z,57.90
2019-06-20T01:56:47.279Z,57.53
2019-06-20T01:59:20.214Z,57.87
2019-06-20T02:01:48.691Z,54.87
2019-06-20T02:04:18.403Z,54.20
2019-06-20T02:06:47.613Z,56.20
2019-06-20T02:09:17.504Z,54.17
2019-06-20T02:11:46.007Z,52.00
2019-06-20T02:14:15.582Z,56.63
2019-06-20T02:16:44.044Z,57.97
2019-06-20T02:19:14.271Z,55.27
2019-06-20T02:21:42.907Z,58.90
2019-06-20T02:24:11.408Z,60.40
2019-06-20T02:26:40.484Z,61.80
2019-06-20T02:29:14.837Z,62.37
2019-06-20T02:31:45.028Z,66.10
2019-06-20T02:34:16.821Z,66.90
2019-06-20T02:36:45.307Z,66.00
2019-06-20T02:39:13.840Z,68.30
2019-06-20T02:41:42.349Z,67.70
2019-06-20T02:44:29.017Z,68.07
2019-06-20T02:46:46.817Z,69.90
2019-06-20T02:49:15.295Z,70.80
2019-06-20T02:51:45.231Z,71.07
2019-06-20T02:54:13.878Z,69.73
2019-06-20T02:56:48.189Z,70.73
2019-06-20T02:59:16.742Z,74.80
2019-06-20T03:01:47.989Z,74.35
2019-06-20T03:04:20.287Z,74.20
2019-06-20T03:06:48.886Z,72.27
2019-06-20T03:09:21.940Z,71.27
2019-06-20T03:11:50.422Z,71.83
2019-06-20T03:14:18.986Z,69.33
2019-06-20T03:16:47.481Z,68.20
2019-06-20T03:19:19.010Z,70.17
2019-06-20T03:21:47.610Z,70.03
2019-06-20T03:24:19.196Z,67.47
2019-06-20T03:26:51.330Z,64.75
2019-06-20T03:29:21.448Z,64.53
2019-06-20T03:31:51.102Z,68.20
2019-06-20T03:34:19.883Z,65.93
2019-06-20T03:36:49.550Z,67.20
2019-06-20T03:39:18.057Z,67.27
2019-06-20T03:41:50.105Z,62.83
2019-06-20T03:44:22.200Z,68.60
2019-06-20T03:46:50.843Z,68.40
2019-06-20T03:49:20.716Z,68.10
2019-06-20T03:51:51.673Z,66.13
2019-06-20T03:54:19.582Z,70.37
2019-06-20T03:56:48.097Z,69.32
2019-06-20T03:59:18.105Z,65.47
2019-06-20T04:01:49.230Z,66.03
2019-06-20T04:04:23.662Z,64.07
2019-06-20T04:06:52.379Z,64.40
2019-06-20T04:09:20.935Z,64.43
2019-06-20T04:11:49.638Z,58.43
2019-06-20T04:14:19.547Z,57.70
2019-06-20T04:16:52.434Z,59.37
2019-06-20T04:19:20.969Z,60.65
2019-06-20T04:21:49.445Z,57.57
2019-06-20T04:24:17.947Z,54.43
2019-06-20T04:26:46.470Z,53.50
2019-06-20T04:29:15.107Z,54.77
2019-06-20T04:31:46.576Z,51.57
2019-06-20T04:34:16.557Z,53.63
2019-06-20T04:36:48.258Z,51.10
2019-06-20T04:39:19.521Z,49.23
2019-06-20T04:41:49.525Z,47.00
2019-06-20T04:44:18.057Z,51.73
2019-06-20T04:47:05.747Z,48.73
2019-06-20T04:49:33.647Z,49.20
2019-06-20T04:52:02.140Z,48.70
2019-06-20T04:54:33.088Z,44.27
2019-06-20T04:57:03.625Z,46.23
2019-06-20T04:59:32.087Z,45.03
2019-06-20T05:02:00.614Z,44.13
2019-06-20T05:04:33.156Z,42.30
2019-06-20T05:07:07.432Z,40.70
2019-06-20T05:09:35.962Z,38.13
2019-06-20T05:12:04.563Z,38.02
2019-06-20T05:14:33.053Z,37.87
2019-06-20T05:17:01.533Z,36.77
2019-06-20T05:19:31.170Z,37.33
2019-06-20T05:21:59.721Z,37.17
2019-06-20T05:24:28.188Z,37.93
2019-06-20T05:26:58.075Z,37.40
2019-06-20T05:29:26.626Z,38.90
2019-06-20T05:31:55.178Z,40.77
2019-06-20T05:34:23.761Z,41.85
2019-06-20T05:36:55.797Z,42.67
2019-06-20T05:39:24.329Z,41.87
2019-06-20T05:41:53.039Z,43.30
2019-06-20T05:44:23.043Z,44.10
2019-06-20T05:46:51.919Z,43.97
2019-06-20T05:49:20.861Z,42.95
2019-06-20T05:51:50.998Z,44.70
2019-06-20T05:54:19.565Z,41.67
2019-06-20T05:56:49.733Z,47.33
2019-06-20T05:59:18.277Z,45.17
2019-06-20T06:01:47.006Z,43.25
2019-06-20T06:04:17.418Z,46.90
2019-06-20T06:06:47.584Z,43.70
2019-06-20T06:09:16.128Z,43.77
2019-06-20T06:11:44.668Z,42.30
2019-06-20T06:14:14.178Z,42.77
2019-06-20T06:16:44.293Z,42.17
2019-06-20T06:19:12.866Z,42.03
2019-06-20T06:21:45.604Z,41.83
2019-06-20T06:24:14.072Z,42.53
2019-06-20T06:26:42.832Z,41.67
2019-06-20T06:29:12.876Z,39.40
2019-06-20T06:31:42.528Z,41.43
2019-06-20T06:34:11.028Z,39.37
2019-06-20T06:36:39.730Z,38.23
2019-06-20T06:39:10.939Z,35.53
2019-06-20T06:41:39.641Z,34.43
2019-06-20T06:44:08.568Z,33.97
2019-06-20T06:46:44.825Z,31.13
2019-06-20T06:49:10.102Z,31.40
2019-06-20T06:51:38.582Z,27.20
2019-06-20T06:54:08.893Z,26.40
2019-06-20T06:56:37.498Z,23.35
2019-06-20T06:59:06.046Z,24.23
2019-06-20T07:01:34.653Z,21.67
2019-06-20T07:04:04.642Z,20.60
2019-06-20T07:06:33.184Z,20.00
2019-06-20T07:09:04.670Z,19.50
2019-06-20T07:11:33.722Z,19.40
2019-06-20T07:14:03.518Z,17.93
2019-06-20T07:16:32.008Z,18.60
2019-06-20T07:19:00.822Z,17.83
2019-06-20T07:21:29.294Z,19.05
2019-06-20T07:23:57.965Z,20.37
2019-06-20T07:26:26.565Z,19.40
2019-06-20T07:28:55.030Z,18.27
2019-06-20T07:31:26.410Z,18.00
2019-06-20T07:33:54.897Z,18.93
2019-06-20T07:36:23.352Z,20.10
2019-06-20T07:38:56.425Z,20.00
2019-06-20T07:41:26.572Z,20.43
2019-06-20T07:43:56.389Z,20.80
2019-06-20T07:46:26.289Z,18.87
2019-06-20T07:48:57.651Z,18.73
2019-06-20T07:51:26.320Z,19.17
2019-06-20T07:53:59.226Z,17.93
2019-06-20T07:56:30.950Z,18.63
2019-06-20T07:58:59.587Z,19.10
2019-06-20T08:01:29.715Z,18.20
2019-06-20T08:03:59.295Z,19.63
2019-06-20T08:06:29.001Z,20.17
2019-06-20T08:08:57.476Z,18.87
2019-06-20T08:11:27.015Z,17.30
2019-06-20T08:13:55.486Z,17.80
2019-06-20T08:16:24.774Z,18.25
2019-06-20T08:18:53.353Z,15.38
2019-06-20T08:21:23.165Z,16.03
2019-06-20T08:23:55.787Z,17.93
2019-06-20T08:26:24.405Z,18.07
2019-06-20T08:29:07.339Z,16.93
2019-06-20T08:31:24.263Z,19.00
2019-06-20T08:33:52.839Z,17.60
2019-06-20T08:36:21.367Z,17.37
2019-06-20T08:38:52.285Z,17.40
2019-06-20T08:41:22.393Z,18.47
2019-06-20T08:43:52.061Z,17.67
2019-06-20T08:46:20.641Z,18.70
2019-06-20T08:48:49.106Z,18.37
2019-06-20T08:51:19.028Z,16.50
2019-06-20T08:53:47.596Z,15.83
2019-06-20T08:56:17.506Z,15.57
2019-06-20T08:58:45.979Z,14.43
2019-06-20T09:01:14.627Z,14.77
2019-06-20T09:03:55.137Z,14.73
2019-06-20T09:06:26.731Z,13.97
2019-06-20T09:08:56.583Z,13.63
2019-06-20T09:11:26.215Z,14.00
2019-06-20T09:13:55.458Z,13.77
2019-06-20T09:16:25.063Z,13.17
2019-06-20T09:18:54.939Z,14.57
2019-06-20T09:21:28.406Z,12.83
2019-06-20T09:24:02.383Z,12.33
2019-06-20T09:26:32.025Z,12.77
2019-06-20T09:29:00.496Z,13.20
2019-06-20T09:31:29.003Z,12.15
2019-06-20T09:34:00.694Z,11.90
2019-06-20T09:36:31.459Z,12.37
2019-06-20T09:38:59.936Z,11.80
2019-06-20T09:41:29.966Z,11.67
2019-06-20T09:43:58.578Z,12.47
2019-06-20T09:46:29.164Z,11.83
2019-06-20T09:48:58.815Z,12.17
2019-06-20T09:51:27.406Z,12.17
2019-06-20T09:53:56.352Z,12.97
2019-06-20T09:56:26.924Z,11.67
2019-06-20T09:58:55.394Z,12.40
2019-06-20T10:01:27.243Z,14.03
2019-06-20T10:03:56.796Z,11.50
2019-06-20T10:06:26.617Z,14.03
2019-06-20T10:08:57.400Z,13.22
2019-06-20T10:11:26.882Z,14.03
2019-06-20T10:13:56.071Z,12.90
2019-06-20T10:16:25.822Z,12.20
2019-06-20T10:18:54.397Z,11.53
2019-06-20T10:21:23.460Z,13.10
2019-06-20T10:23:52.013Z,13.53
2019-06-20T10:26:20.674Z,12.40
2019-06-20T10:28:53.114Z,11.43
2019-06-20T10:31:23.246Z,12.30
2019-06-20T10:33:52.788Z,11.40
2019-06-20T10:36:21.356Z,11.80
2019-06-20T10:38:50.372Z,10.17
2019-06-20T10:41:19.107Z,9.95
2019-06-20T10:43:52.353Z,11.70
2019-06-20T10:46:20.860Z,12.87
2019-06-20T10:48:50.548Z,12.60
2019-06-20T10:51:33.703Z,13.53
2019-06-20T10:54:03.695Z,11.88
2019-06-20T10:56:35.336Z,12.67
2019-06-20T10:59:04.174Z,11.57
2019-06-20T11:01:32.683Z,11.10
2019-06-20T11:04:01.177Z,10.90
2019-06-20T11:06:29.735Z,10.30
2019-06-20T11:08:59.516Z,11.10
2019-06-20T11:11:30.878Z,10.67
2019-06-20T11:13:59.349Z,10.13
2019-06-20T11:16:27.944Z,10.13
2019-06-20T11:18:56.456Z,10.50
2019-06-20T11:21:25.006Z,9.50
2019-06-20T11:23:54.628Z,8.73
2019-06-20T11:26:23.169Z,9.10
2019-06-20T11:28:52.442Z,9.30
2019-06-20T11:31:21.503Z,8.43
2019-06-20T11:33:52.943Z,9.65
2019-06-20T11:36:22.299Z,10.60
2019-06-20T11:38:52.208Z,8.90
2019-06-20T11:41:24.968Z,9.17
2019-06-20T11:43:53.683Z,8.87
2019-06-20T11:46:23.803Z,9.25
2019-06-20T11:48:52.346Z,8.70
2019-06-20T11:51:22.365Z,8.08
2019-06-20T11:53:51.885Z,8.40
2019-06-20T11:56:21.681Z,7.47
2019-06-20T11:58:50.223Z,6.83
2019-06-20T12:01:32.476Z,7.07
2019-06-20T12:03:55.048Z,6.77
2019-06-20T12:06:25.327Z,6.93
2019-06-20T12:08:55.993Z,8.17
2019-06-20T12:11:24.593Z,6.90
2019-06-20T12:13:53.092Z,8.07
2019-06-20T12:16:21.635Z,7.97
2019-06-20T12:18:52.247Z,7.25
2019-06-20T12:21:23.803Z,6.10
2019-06-20T12:23:53.652Z,6.73
2019-06-20T12:26:22.133Z,6.10
2019-06-20T12:28:54.429Z,5.53
2019-06-20T12:31:27.092Z,5.00
2019-06-20T12:33:55.619Z,6.30
2019-06-20T12:36:25.719Z,5.90
2019-06-20T12:38:54.432Z,5.17
2019-06-20T12:41:27.135Z,5.03
2019-06-20T12:43:57.047Z,5.57
2019-06-20T12:46:27.949Z,5.40
2019-06-20T12:48:59.716Z,6.97
2019-06-20T12:51:28.334Z,7.00
2019-06-20T12:53:59.345Z,5.15
2019-06-20T12:56:27.838Z,5.30
2019-06-20T12:58:58.212Z,7.30
2019-06-20T13:01:35.839Z,5.17
2019-06-20T13:03:59.298Z,5.40
2019-06-20T13:06:32.070Z,6.60
2019-06-20T13:09:02.291Z,6.03
2019-06-20T13:11:32.593Z,5.43
2019-06-20T13:14:01.880Z,5.77
2019-06-20T13:16:30.417Z,5.70
2019-06-20T13:18:59.343Z,5.20
2019-06-20T13:21:28.021Z,5.73
2019-06-20T13:23:58.668Z,6.30
2019-06-20T13:26:28.878Z,5.70
2019-06-20T13:29:04.172Z,6.95
2019-06-20T13:31:30.575Z,5.17
2019-06-20T13:34:00.705Z,5.10
2019-06-20T13:36:29.400Z,4.83
2019-06-20T13:38:58.992Z,5.65
2019-06-20T13:41:27.632Z,5.27
2019-06-20T13:43:56.329Z,5.90
2019-06-20T13:46:24.974Z,5.43
2019-06-20T13:48:59.426Z,5.40
2019-06-20T13:51:28.025Z,5.80
2019-06-20T13:53:58.104Z,5.43
2019-06-20T13:56:29.092Z,5.60
2019-06-20T13:58:57.764Z,5.33
2019-06-20T14:01:28.206Z,5.12
2019-06-20T14:03:56.900Z,5.00
2019-06-20T14:06:27.096Z,5.60
2019-06-20T14:08:55.626Z,6.15
2019-06-20T14:11:24.140Z,5.10
2019-06-20T14:13:54.048Z,10.33
2019-06-20T14:16:25.709Z,12.23
2019-06-20T14:18:54.270Z,13.97
2019-06-20T14:21:25.734Z,15.07
2019-06-20T14:23:57.250Z,16.17
2019-06-20T14:26:25.760Z,17.10
2019-06-20T14:28:55.692Z,16.83
2019-06-20T14:31:25.972Z,17.70
2019-06-20T14:33:56.007Z,17.37
2019-06-20T14:36:29.137Z,17.63
2019-06-20T14:39:00.387Z,19.13
2019-06-20T14:41:28.902Z,18.53
2019-06-20T14:43:57.615Z,19.45
2019-06-20T14:46:30.379Z,19.63
2019-06-20T14:48:59.394Z,20.57
2019-06-20T14:51:27.882Z,21.37
2019-06-20T14:53:56.366Z,22.30
2019-06-20T14:56:27.430Z,21.67
2019-06-20T14:58:55.927Z,22.67
2019-06-20T15:01:24.452Z,21.87
2019-06-20T15:03:56.568Z,21.60
2019-06-20T15:06:26.700Z,21.53
2019-06-20T15:09:04.818Z,20.17
2019-06-20T15:11:28.480Z,18.52
2019-06-20T15:13:57.234Z,16.95
2019-06-20T15:16:25.706Z,20.10
2019-06-20T15:18:55.740Z,17.70
2019-06-20T15:21:24.618Z,19.40
2019-06-20T15:23:57.317Z,17.80
2019-06-20T15:26:25.979Z,15.80
2019-06-20T15:28:57.028Z,15.13
2019-06-20T15:31:24.881Z,14.73
2019-06-20T15:33:54.783Z,16.48
2019-06-20T15:36:24.918Z,15.63
2019-06-20T15:38:53.459Z,14.63
2019-06-20T15:41:21.974Z,15.37
2019-06-20T15:43:53.650Z,16.73
2019-06-20T15:46:23.729Z,17.27
2019-06-20T15:48:54.732Z,17.73
2019-06-20T15:51:25.929Z,19.10
2019-06-20T15:53:54.529Z,19.67
2019-06-20T15:56:23.123Z,18.20
2019-06-20T15:58:51.997Z,17.30
2019-06-20T16:01:20.543Z,18.00
2019-06-20T16:03:54.234Z,16.70
2019-06-20T16:06:24.040Z,15.73
2019-06-20T16:08:53.389Z,15.43
2019-06-20T16:11:21.936Z,14.77
2019-06-20T16:13:52.414Z,12.97
2019-06-20T16:16:21.664Z,13.93
2019-06-20T16:18:57.735Z,12.57
2019-06-20T16:21:27.690Z,12.20
2019-06-20T16:23:56.170Z,12.80
2019-06-20T16:26:24.819Z,12.37
2019-06-20T16:28:54.308Z,12.30
2019-06-20T16:31:26.920Z,13.77
2019-06-20T16:33:55.100Z,13.07
2019-06-20T16:36:23.769Z,13.33
2019-06-20T16:38:53.588Z,13.43
2019-06-20T16:41:25.836Z,13.47
2019-06-20T16:43:54.533Z,12.30
2019-06-20T16:46:22.995Z,12.67
2019-06-20T16:48:51.574Z,12.80
2019-06-20T16:51:20.062Z,12.40
2019-06-20T16:53:51.664Z,13.40
2019-06-20T16:56:20.169Z,13.20
2019-06-20T16:58:48.675Z,14.68
2019-06-20T17:01:17.131Z,14.93
2019-06-20T17:03:46.564Z,14.57
2019-06-20T17:06:16.697Z,15.13
2019-06-20T17:08:47.881Z,15.87
2019-06-20T17:11:20.283Z,12.33
2019-06-20T17:13:53.881Z,9.57
2019-06-20T17:16:22.359Z,7.77
2019-06-20T17:18:58.063Z,8.73
2019-06-20T17:21:31.018Z,9.27
2019-06-20T17:23:59.817Z,9.87
2019-06-20T17:26:31.007Z,8.67
2019-06-20T17:28:59.732Z,9.00
2019-06-20T17:31:33.287Z,7.55
2019-06-20T17:34:05.210Z,7.12
2019-06-20T17:36:33.939Z,6.67
2019-06-20T17:39:02.481Z,6.72
2019-06-20T17:41:31.399Z,7.45
2019-06-20T17:44:02.601Z,7.57
2019-06-20T17:46:31.262Z,7.33
2019-06-20T17:49:01.097Z,6.97
2019-06-20T17:51:29.637Z,7.45
2019-06-20T17:53:59.309Z,7.80
2019-06-20T17:56:27.880Z,9.67
2019-06-20T17:58:59.017Z,9.87
2019-06-20T18:01:28.100Z,10.53
2019-06-20T18:04:12.903Z,10.83
2019-06-20T18:06:35.012Z,10.43
2019-06-20T18:09:05.086Z,10.37
2019-06-20T18:11:35.610Z,11.03
2019-06-20T18:14:04.352Z,11.03
2019-06-20T18:16:32.944Z,11.40
2019-06-20T18:19:01.404Z,11.87
2019-06-20T18:21:37.011Z,11.33
2019-06-20T18:24:06.831Z,12.23
2019-06-20T18:26:35.320Z,12.37
2019-06-20T18:29:05.888Z,9.93
2019-06-20T18:31:34.436Z,9.07
2019-06-20T18:34:04.650Z,8.40
2019-06-20T18:36:34.382Z,8.67
2019-06-20T18:39:02.831Z,8.93
2019-06-20T18:41:36.684Z,8.83
2019-06-20T18:44:06.784Z,8.73
2019-06-20T18:46:36.256Z,8.87
2019-06-20T18:49:04.909Z,9.13
2019-06-20T18:51:35.624Z,9.70
2019-06-20T18:54:10.829Z,8.67
2019-06-20T18:56:39.416Z,8.50
2019-06-20T18:59:05.521Z,9.28
2019-06-20T19:01:38.221Z,9.55
2019-06-20T19:04:08.218Z,10.10
2019-06-20T19:06:36.702Z,10.50
2019-06-20T19:09:08.209Z,10.97
2019-06-20T19:11:36.765Z,11.20
2019-06-20T19:14:06.177Z,9.60
2019-06-20T19:16:34.683Z,10.20
2019-06-20T19:19:06.184Z,10.83
2019-06-20T19:21:36.976Z,11.60
2019-06-20T19:24:05.688Z,11.40
2019-06-20T19:26:34.256Z,12.18
2019-06-20T19:29:04.443Z,11.15
2019-06-20T19:31:34.322Z,12.60
2019-06-20T19:34:03.054Z,11.77
2019-06-20T19:36:33.769Z,11.70
2019-06-20T19:39:02.349Z,11.68
2019-06-20T19:41:35.281Z,12.20
2019-06-20T19:44:04.262Z,12.43
2019-06-20T19:46:33.045Z,11.40
2019-06-20T19:49:01.517Z,10.63
2019-06-20T19:51:33.901Z,11.30
2019-06-20T19:54:04.322Z,10.00
2019-06-20T19:56:32.801Z,9.70
2019-06-20T19:59:01.322Z,9.80
2019-06-20T20:01:30.152Z,9.95
2019-06-20T20:04:05.204Z,10.37
2019-06-20T20:06:33.665Z,10.17
2019-06-20T20:09:07.390Z,8.90
2019-06-20T20:11:37.563Z,10.53
2019-06-20T20:14:07.019Z,9.33
2019-06-20T20:16:44.313Z,9.70
2019-06-20T20:19:12.818Z,9.80
2019-06-20T20:21:41.390Z,9.83
2019-06-20T20:24:09.894Z,9.80
2019-06-20T20:26:38.353Z,9.57
2019-06-20T20:29:07.129Z,9.78
2019-06-20T20:31:39.234Z,10.47
2019-06-20T20:34:15.086Z,10.80
2019-06-20T20:36:42.990Z,11.00
2019-06-20T20:39:16.751Z,9.85
2019-06-20T20:41:45.329Z,10.30
2019-06-20T20:44:14.095Z,10.73
2019-06-20T20:46:42.629Z,12.03
2019-06-20T20:49:14.227Z,10.38
2019-06-20T20:51:46.933Z,11.27
2019-06-20T20:54:18.537Z,11.43
2019-06-20T20:56:47.027Z,12.13
2019-06-20T20:59:17.980Z,10.50
2019-06-20T21:01:46.515Z,11.23
2019-06-20T21:04:15.107Z,11.17
2019-06-20T21:06:43.585Z,11.87
2019-06-20T21:09:13.655Z,12.33
2019-06-20T21:11:42.298Z,12.00
2019-06-20T21:14:13.193Z,12.47
2019-06-20T21:16:41.670Z,11.37
2019-06-20T21:19:12.593Z,11.90
2019-06-20T21:21:41.097Z,11.17
2019-06-20T21:24:10.724Z,10.20
2019-06-20T21:26:49.399Z,11.30
2019-06-20T21:29:13.898Z,10.53
2019-06-20T21:31:42.364Z,10.30
2019-06-20T21:34:20.294Z,10.20
2019-06-20T21:36:50.226Z,10.37
2019-06-20T21:39:18.803Z,9.30
2019-06-20T21:41:47.305Z,9.18
2019-06-20T21:44:19.125Z,8.33
2019-06-20T21:46:47.743Z,7.20
2019-06-20T21:49:17.828Z,7.63
2019-06-20T21:51:46.288Z,6.73
2019-06-20T21:54:15.944Z,7.43
2019-06-20T21:56:44.573Z,6.20
2019-06-20T21:59:13.113Z,6.43
2019-06-20T22:01:41.695Z,6.57
2019-06-20T22:04:11.808Z,6.33
2019-06-20T22:06:40.276Z,6.12
2019-06-20T22:09:09.213Z,6.30
2019-06-20T22:11:37.907Z,6.67
2019-06-20T22:14:08.873Z,6.80
2019-06-20T22:16:37.369Z,6.37
2019-06-20T22:19:05.838Z,6.42
2019-06-20T22:21:35.990Z,6.20
2019-06-20T22:24:07.206Z,5.97
2019-06-20T22:26:38.839Z,6.40
2019-06-20T22:29:07.378Z,6.67
2019-06-20T22:31:35.046Z,6.37
2019-06-20T22:34:03.592Z,6.53
2019-06-20T22:36:40.270Z,6.93
2019-06-20T22:39:02.322Z,6.50
2019-06-20T22:41:32.366Z,7.27
2019-06-20T22:44:00.821Z,6.60
2019-06-20T22:46:29.473Z,6.35
2019-06-20T22:48:58.003Z,6.20
2019-06-20T22:51:26.530Z,6.73
2019-06-20T22:53:55.921Z,7.03
2019-06-20T22:56:24.466Z,6.47
2019-06-20T22:58:53.109Z,6.90
2019-06-20T23:01:24.400Z,6.53
2019-06-20T23:03:53.871Z,6.20
2019-06-20T23:06:22.339Z,6.90
2019-06-20T23:08:50.850Z,7.47
2019-06-20T23:11:22.328Z,6.57
2019-06-20T23:13:50.883Z,7.08
2019-06-20T23:16:19.405Z,7.78
2019-06-20T23:18:47.914Z,7.23
2019-06-20T23:21:17.454Z,7.80
2019-06-20T23:23:45.922Z,6.93
2019-06-20T23:26:15.361Z,8.40
2019-06-20T23:28:45.499Z,9.17
2019-06-20T23:31:13.989Z,8.03
2019-06-20T23:33:45.155Z,8.83
2019-06-20T23:36:13.667Z,7.60
2019-06-20T23:38:42.118Z,7.77
2019-06-20T23:41:10.645Z,7.30
2019-06-20T23:43:39.135Z,7.43
2019-06-20T23:46:07.591Z,7.23
2019-06-20T23:48:36.071Z,6.43
2019-06-20T23:51:05.630Z,7.37
2019-06-20T23:53:34.138Z,7.40
2019-06-20T23:56:07.739Z,7.23
2019-06-20T23:58:35.449Z,7.23
